<?xml version="1.0" encoding="UTF-8" standalone="no" ?>
<gpx xmlns="http://www.topografix.com/GPX/1/1" xmlns:xsi="http://www.w3.org/2001/XMLSchema-instance" xsi:schemaLocation="http://www.topografix.com/GPX/1/1 http://www.topografix.com/GPX/1/1/gpx.xsd" version="1.1" creator="VisuGPX - https://www.visugpx.com">
  <metadata>
    <name>005. Du Muy à Saint-Raphael</name>
    <desc><![CDATA[2021/10/12 AnnivPierre2021_Etape 5]]></desc>
  </metadata>
  <trk>
    <name><![CDATA[05. Du Muy à Saint-Raphael]]></name>
    <trkseg>
      <trkpt lat="43.47426" lon="6.56496">
        <ele>26.422</ele>
        <time>2016-12-31T15:25:38Z</time>
      </trkpt>
      <trkpt lat="43.47593" lon="6.56509">
        <ele>32.436</ele>
        <time>2016-12-31T15:25:18Z</time>
      </trkpt>
      <trkpt lat="43.4765" lon="6.56541">
        <ele>32.108</ele>
        <time>2016-12-31T15:24:58Z</time>
      </trkpt>
      <trkpt lat="43.47741" lon="6.56511">
        <ele>32.303</ele>
        <time>2016-12-31T15:24:38Z</time>
      </trkpt>
      <trkpt lat="43.47742" lon="6.56586">
        <ele>29.921</ele>
        <time>2016-12-31T15:24:18Z</time>
      </trkpt>
      <trkpt lat="43.47731" lon="6.56659">
        <ele>28.111</ele>
        <time>2016-12-31T15:23:58Z</time>
      </trkpt>
      <trkpt lat="43.47809" lon="6.56653">
        <ele>29.549</ele>
        <time>2016-12-31T15:23:38Z</time>
      </trkpt>
      <trkpt lat="43.47825" lon="6.56683">
        <ele>28.425</ele>
        <time>2016-12-31T15:23:18Z</time>
      </trkpt>
      <trkpt lat="43.47875" lon="6.56681">
        <ele>27.024</ele>
        <time>2016-12-31T15:22:58Z</time>
      </trkpt>
      <trkpt lat="43.47889" lon="6.56762">
        <ele>22.667</ele>
        <time>2016-12-31T15:22:38Z</time>
      </trkpt>
      <trkpt lat="43.47914" lon="6.56803">
        <ele>20.179</ele>
        <time>2016-12-31T15:22:18Z</time>
      </trkpt>
      <trkpt lat="43.47948" lon="6.56824">
        <ele>20.068</ele>
        <time>2016-12-31T15:21:58Z</time>
      </trkpt>
      <trkpt lat="43.48001" lon="6.56749">
        <ele>20.278</ele>
        <time>2016-12-31T15:21:38Z</time>
      </trkpt>
      <trkpt lat="43.48065" lon="6.56769">
        <ele>30.022</ele>
        <time>2016-12-31T15:21:18Z</time>
      </trkpt>
      <trkpt lat="43.48049" lon="6.56861">
        <ele>28.308</ele>
        <time>2016-12-31T15:20:58Z</time>
      </trkpt>
      <trkpt lat="43.4803" lon="6.56888">
        <ele>26.219</ele>
        <time>2016-12-31T15:20:38Z</time>
      </trkpt>
      <trkpt lat="43.48027" lon="6.56907">
        <ele>25.99</ele>
        <time>2016-12-31T15:20:18Z</time>
      </trkpt>
      <trkpt lat="43.48062" lon="6.56922">
        <ele>29.276</ele>
        <time>2016-12-31T15:19:58Z</time>
      </trkpt>
      <trkpt lat="43.48044" lon="6.57044">
        <ele>26.956</ele>
        <time>2016-12-31T15:19:38Z</time>
      </trkpt>
      <trkpt lat="43.48022" lon="6.57127">
        <ele>24.662</ele>
        <time>2016-12-31T15:19:18Z</time>
      </trkpt>
      <trkpt lat="43.47988" lon="6.57141">
        <ele>22.151</ele>
        <time>2016-12-31T15:18:58Z</time>
      </trkpt>
      <trkpt lat="43.47963" lon="6.57132">
        <ele>20.784</ele>
        <time>2016-12-31T15:18:38Z</time>
      </trkpt>
      <trkpt lat="43.47923" lon="6.57131">
        <ele>20.026</ele>
        <time>2016-12-31T15:18:18Z</time>
      </trkpt>
      <trkpt lat="43.47905" lon="6.57143">
        <ele>20.135</ele>
        <time>2016-12-31T15:17:58Z</time>
      </trkpt>
      <trkpt lat="43.47995" lon="6.57229">
        <ele>30.525</ele>
        <time>2016-12-31T15:17:38Z</time>
      </trkpt>
      <trkpt lat="43.48054" lon="6.57248">
        <ele>29.029</ele>
        <time>2016-12-31T15:17:18Z</time>
      </trkpt>
      <trkpt lat="43.48108" lon="6.5722">
        <ele>30.008</ele>
        <time>2016-12-31T15:16:58Z</time>
      </trkpt>
      <trkpt lat="43.48206" lon="6.57227">
        <ele>30.122</ele>
        <time>2016-12-31T15:16:38Z</time>
      </trkpt>
      <trkpt lat="43.4822" lon="6.57247">
        <ele>31.602</ele>
        <time>2016-12-31T15:16:18Z</time>
      </trkpt>
      <trkpt lat="43.48237" lon="6.57247">
        <ele>34.249</ele>
        <time>2016-12-31T15:15:58Z</time>
      </trkpt>
      <trkpt lat="43.48259" lon="6.57219">
        <ele>31.529</ele>
        <time>2016-12-31T15:15:38Z</time>
      </trkpt>
      <trkpt lat="43.48343" lon="6.57192">
        <ele>31.655</ele>
        <time>2016-12-31T15:15:18Z</time>
      </trkpt>
      <trkpt lat="43.48377" lon="6.57147">
        <ele>33.374</ele>
        <time>2016-12-31T15:14:58Z</time>
      </trkpt>
      <trkpt lat="43.48427" lon="6.57151">
        <ele>32.557</ele>
        <time>2016-12-31T15:14:38Z</time>
      </trkpt>
      <trkpt lat="43.48514" lon="6.57119">
        <ele>30.659</ele>
        <time>2016-12-31T15:14:18Z</time>
      </trkpt>
      <trkpt lat="43.48556" lon="6.57147">
        <ele>30.348</ele>
        <time>2016-12-31T15:13:58Z</time>
      </trkpt>
      <trkpt lat="43.4858" lon="6.57192">
        <ele>32.188</ele>
        <time>2016-12-31T15:13:38Z</time>
      </trkpt>
      <trkpt lat="43.48583" lon="6.57231">
        <ele>34.732</ele>
        <time>2016-12-31T15:13:18Z</time>
      </trkpt>
      <trkpt lat="43.48592" lon="6.57276">
        <ele>35.608</ele>
        <time>2016-12-31T15:12:58Z</time>
      </trkpt>
      <trkpt lat="43.48578" lon="6.57306">
        <ele>37.221</ele>
        <time>2016-12-31T15:12:38Z</time>
      </trkpt>
      <trkpt lat="43.48562" lon="6.57374">
        <ele>38.956</ele>
        <time>2016-12-31T15:12:18Z</time>
      </trkpt>
      <trkpt lat="43.48541" lon="6.57411">
        <ele>39.574</ele>
        <time>2016-12-31T15:11:58Z</time>
      </trkpt>
      <trkpt lat="43.48544" lon="6.57473">
        <ele>41.57</ele>
        <time>2016-12-31T15:11:38Z</time>
      </trkpt>
      <trkpt lat="43.48534" lon="6.57535">
        <ele>44.856</ele>
        <time>2016-12-31T15:11:18Z</time>
      </trkpt>
      <trkpt lat="43.48534" lon="6.57602">
        <ele>48.195</ele>
        <time>2016-12-31T15:10:58Z</time>
      </trkpt>
      <trkpt lat="43.48564" lon="6.57613">
        <ele>51.318</ele>
        <time>2016-12-31T15:10:38Z</time>
      </trkpt>
      <trkpt lat="43.48587" lon="6.57625">
        <ele>54.21</ele>
        <time>2016-12-31T15:10:18Z</time>
      </trkpt>
      <trkpt lat="43.48617" lon="6.57673">
        <ele>53.539</ele>
        <time>2016-12-31T15:09:58Z</time>
      </trkpt>
      <trkpt lat="43.4865" lon="6.57801">
        <ele>54.889</ele>
        <time>2016-12-31T15:09:38Z</time>
      </trkpt>
      <trkpt lat="43.48673" lon="6.57911">
        <ele>59.823</ele>
        <time>2016-12-31T15:09:18Z</time>
      </trkpt>
      <trkpt lat="43.48665" lon="6.57945">
        <ele>60.008</ele>
        <time>2016-12-31T15:08:58Z</time>
      </trkpt>
      <trkpt lat="43.48668" lon="6.57997">
        <ele>60.026</ele>
        <time>2016-12-31T15:08:38Z</time>
      </trkpt>
      <trkpt lat="43.48644" lon="6.58064">
        <ele>59.042</ele>
        <time>2016-12-31T15:08:18Z</time>
      </trkpt>
      <trkpt lat="43.48644" lon="6.58064">
        <ele>59.087</ele>
        <time>2016-12-31T15:07:58Z</time>
      </trkpt>
      <trkpt lat="43.48658" lon="6.58131">
        <ele>59.069</ele>
        <time>2016-12-31T15:07:38Z</time>
      </trkpt>
      <trkpt lat="43.48651" lon="6.58264">
        <ele>60.215</ele>
        <time>2016-12-31T15:07:18Z</time>
      </trkpt>
      <trkpt lat="43.48659" lon="6.58332">
        <ele>63.664</ele>
        <time>2016-12-31T15:06:58Z</time>
      </trkpt>
      <trkpt lat="43.48652" lon="6.58399">
        <ele>68.237</ele>
        <time>2016-12-31T15:06:38Z</time>
      </trkpt>
      <trkpt lat="43.48674" lon="6.5844">
        <ele>70.099</ele>
        <time>2016-12-31T15:06:18Z</time>
      </trkpt>
      <trkpt lat="43.48681" lon="6.58525">
        <ele>70.018</ele>
        <time>2016-12-31T15:05:58Z</time>
      </trkpt>
      <trkpt lat="43.48671" lon="6.58652">
        <ele>68.398</ele>
        <time>2016-12-31T15:05:38Z</time>
      </trkpt>
      <trkpt lat="43.48602" lon="6.58686">
        <ele>62.262</ele>
        <time>2016-12-31T15:05:18Z</time>
      </trkpt>
      <trkpt lat="43.4859" lon="6.58738">
        <ele>59.108</ele>
        <time>2016-12-31T15:04:58Z</time>
      </trkpt>
      <trkpt lat="43.48593" lon="6.58815">
        <ele>55.02</ele>
        <time>2016-12-31T15:04:38Z</time>
      </trkpt>
      <trkpt lat="43.48552" lon="6.58887">
        <ele>49.828</ele>
        <time>2016-12-31T15:04:18Z</time>
      </trkpt>
      <trkpt lat="43.48557" lon="6.59029">
        <ele>40.975</ele>
        <time>2016-12-31T15:03:58Z</time>
      </trkpt>
      <trkpt lat="43.48601" lon="6.5907">
        <ele>36.071</ele>
        <time>2016-12-31T15:03:38Z</time>
      </trkpt>
      <trkpt lat="43.48592" lon="6.59137">
        <ele>33.847</ele>
        <time>2016-12-31T15:03:18Z</time>
      </trkpt>
      <trkpt lat="43.48576" lon="6.59174">
        <ele>31.416</ele>
        <time>2016-12-31T15:02:58Z</time>
      </trkpt>
      <trkpt lat="43.4857" lon="6.59228">
        <ele>27.389</ele>
        <time>2016-12-31T15:02:38Z</time>
      </trkpt>
      <trkpt lat="43.48548" lon="6.59221">
        <ele>25.091</ele>
        <time>2016-12-31T15:02:18Z</time>
      </trkpt>
      <trkpt lat="43.48532" lon="6.59255">
        <ele>20.46</ele>
        <time>2016-12-31T15:01:58Z</time>
      </trkpt>
      <trkpt lat="43.48609" lon="6.59299">
        <ele>20.24</ele>
        <time>2016-12-31T15:01:38Z</time>
      </trkpt>
      <trkpt lat="43.48643" lon="6.59272">
        <ele>20.974</ele>
        <time>2016-12-31T15:01:18Z</time>
      </trkpt>
      <trkpt lat="43.48696" lon="6.59236">
        <ele>20.008</ele>
        <time>2016-12-31T15:00:58Z</time>
      </trkpt>
      <trkpt lat="43.48836" lon="6.59176">
        <ele>22.725</ele>
        <time>2016-12-31T15:00:38Z</time>
      </trkpt>
      <trkpt lat="43.48912" lon="6.59187">
        <ele>23.023</ele>
        <time>2016-12-31T15:00:18Z</time>
      </trkpt>
      <trkpt lat="43.48878" lon="6.59253">
        <ele>20.097</ele>
        <time>2016-12-31T14:59:58Z</time>
      </trkpt>
      <trkpt lat="43.48854" lon="6.59324">
        <ele>20.093</ele>
        <time>2016-12-31T14:59:38Z</time>
      </trkpt>
      <trkpt lat="43.48815" lon="6.59407">
        <ele>20.029</ele>
        <time>2016-12-31T14:59:18Z</time>
      </trkpt>
      <trkpt lat="43.48841" lon="6.59374">
        <ele>20.048</ele>
        <time>2016-12-31T14:58:58Z</time>
      </trkpt>
      <trkpt lat="43.48872" lon="6.5937">
        <ele>20.481</ele>
        <time>2016-12-31T14:58:38Z</time>
      </trkpt>
      <trkpt lat="43.48875" lon="6.59382">
        <ele>20.543</ele>
        <time>2016-12-31T14:58:18Z</time>
      </trkpt>
      <trkpt lat="43.48959" lon="6.59424">
        <ele>27.362</ele>
        <time>2016-12-31T14:57:58Z</time>
      </trkpt>
      <trkpt lat="43.49003" lon="6.59489">
        <ele>30.022</ele>
        <time>2016-12-31T14:57:38Z</time>
      </trkpt>
      <trkpt lat="43.49036" lon="6.59563">
        <ele>30.076</ele>
        <time>2016-12-31T14:57:18Z</time>
      </trkpt>
      <trkpt lat="43.49067" lon="6.59586">
        <ele>30.008</ele>
        <time>2016-12-31T14:56:58Z</time>
      </trkpt>
      <trkpt lat="43.49121" lon="6.59669">
        <ele>30.009</ele>
        <time>2016-12-31T14:56:38Z</time>
      </trkpt>
      <trkpt lat="43.4916" lon="6.5978">
        <ele>30.054</ele>
        <time>2016-12-31T14:56:18Z</time>
      </trkpt>
      <trkpt lat="43.49191" lon="6.59836">
        <ele>30.014</ele>
        <time>2016-12-31T14:55:58Z</time>
      </trkpt>
      <trkpt lat="43.49236" lon="6.59951">
        <ele>34.753</ele>
        <time>2016-12-31T14:55:38Z</time>
      </trkpt>
      <trkpt lat="43.49258" lon="6.60067">
        <ele>42.519</ele>
        <time>2016-12-31T14:55:18Z</time>
      </trkpt>
      <trkpt lat="43.49254" lon="6.60148">
        <ele>46.158</ele>
        <time>2016-12-31T14:54:58Z</time>
      </trkpt>
      <trkpt lat="43.49261" lon="6.60253">
        <ele>51.941</ele>
        <time>2016-12-31T14:54:38Z</time>
      </trkpt>
      <trkpt lat="43.49247" lon="6.60301">
        <ele>53.683</ele>
        <time>2016-12-31T14:54:18Z</time>
      </trkpt>
      <trkpt lat="43.49224" lon="6.60477">
        <ele>61.282</ele>
        <time>2016-12-31T14:53:58Z</time>
      </trkpt>
      <trkpt lat="43.49229" lon="6.60633">
        <ele>65.572</ele>
        <time>2016-12-31T14:53:38Z</time>
      </trkpt>
      <trkpt lat="43.49213" lon="6.6079">
        <ele>68.086</ele>
        <time>2016-12-31T14:53:18Z</time>
      </trkpt>
      <trkpt lat="43.49225" lon="6.60871">
        <ele>70.008</ele>
        <time>2016-12-31T14:52:58Z</time>
      </trkpt>
      <trkpt lat="43.49205" lon="6.60949">
        <ele>70.009</ele>
        <time>2016-12-31T14:52:38Z</time>
      </trkpt>
      <trkpt lat="43.49179" lon="6.60955">
        <ele>70.054</ele>
        <time>2016-12-31T14:52:18Z</time>
      </trkpt>
      <trkpt lat="43.49095" lon="6.61028">
        <ele>70.014</ele>
        <time>2016-12-31T14:51:58Z</time>
      </trkpt>
      <trkpt lat="43.49026" lon="6.61046">
        <ele>70.018</ele>
        <time>2016-12-31T14:51:38Z</time>
      </trkpt>
      <trkpt lat="43.48962" lon="6.61011">
        <ele>70.054</ele>
        <time>2016-12-31T14:51:18Z</time>
      </trkpt>
      <trkpt lat="43.48892" lon="6.60917">
        <ele>71.853</ele>
        <time>2016-12-31T14:50:58Z</time>
      </trkpt>
      <trkpt lat="43.48854" lon="6.60901">
        <ele>74.196</ele>
        <time>2016-12-31T14:50:38Z</time>
      </trkpt>
      <trkpt lat="43.4881" lon="6.60933">
        <ele>76.618</ele>
        <time>2016-12-31T14:50:18Z</time>
      </trkpt>
      <trkpt lat="43.48773" lon="6.60958">
        <ele>79.227</ele>
        <time>2016-12-31T14:49:58Z</time>
      </trkpt>
      <trkpt lat="43.4872" lon="6.6095">
        <ele>80.087</ele>
        <time>2016-12-31T14:49:38Z</time>
      </trkpt>
      <trkpt lat="43.48682" lon="6.60963">
        <ele>80.251</ele>
        <time>2016-12-31T14:49:18Z</time>
      </trkpt>
      <trkpt lat="43.48633" lon="6.61009">
        <ele>80.208</ele>
        <time>2016-12-31T14:48:58Z</time>
      </trkpt>
      <trkpt lat="43.48583" lon="6.61082">
        <ele>80.119</ele>
        <time>2016-12-31T14:48:38Z</time>
      </trkpt>
      <trkpt lat="43.48494" lon="6.61131">
        <ele>82.281</ele>
        <time>2016-12-31T14:48:18Z</time>
      </trkpt>
      <trkpt lat="43.48326" lon="6.61294">
        <ele>87.267</ele>
        <time>2016-12-31T14:47:58Z</time>
      </trkpt>
      <trkpt lat="43.48263" lon="6.61329">
        <ele>89.896</ele>
        <time>2016-12-31T14:47:38Z</time>
      </trkpt>
      <trkpt lat="43.48182" lon="6.614">
        <ele>86.672</ele>
        <time>2016-12-31T14:47:18Z</time>
      </trkpt>
      <trkpt lat="43.48066" lon="6.61445">
        <ele>87.321</ele>
        <time>2016-12-31T14:46:58Z</time>
      </trkpt>
      <trkpt lat="43.47866" lon="6.61573">
        <ele>83.564</ele>
        <time>2016-12-31T14:46:38Z</time>
      </trkpt>
      <trkpt lat="43.47792" lon="6.61558">
        <ele>80.586</ele>
        <time>2016-12-31T14:46:18Z</time>
      </trkpt>
      <trkpt lat="43.47673" lon="6.6147">
        <ele>74.495</ele>
        <time>2016-12-31T14:45:58Z</time>
      </trkpt>
      <trkpt lat="43.47538" lon="6.61445">
        <ele>67.495</ele>
        <time>2016-12-31T14:45:38Z</time>
      </trkpt>
      <trkpt lat="43.47427" lon="6.6138">
        <ele>62.419</ele>
        <time>2016-12-31T14:45:18Z</time>
      </trkpt>
      <trkpt lat="43.4734" lon="6.61391">
        <ele>60.008</ele>
        <time>2016-12-31T14:44:58Z</time>
      </trkpt>
      <trkpt lat="43.4727" lon="6.61359">
        <ele>59.115</ele>
        <time>2016-12-31T14:44:38Z</time>
      </trkpt>
      <trkpt lat="43.47222" lon="6.61367">
        <ele>59.005</ele>
        <time>2016-12-31T14:44:18Z</time>
      </trkpt>
      <trkpt lat="43.47163" lon="6.61421">
        <ele>60.044</ele>
        <time>2016-12-31T14:43:58Z</time>
      </trkpt>
      <trkpt lat="43.47105" lon="6.61579">
        <ele>52.978</ele>
        <time>2016-12-31T14:43:38Z</time>
      </trkpt>
      <trkpt lat="43.47079" lon="6.61623">
        <ele>51.064</ele>
        <time>2016-12-31T14:43:18Z</time>
      </trkpt>
      <trkpt lat="43.47044" lon="6.61725">
        <ele>50.663</ele>
        <time>2016-12-31T14:42:58Z</time>
      </trkpt>
      <trkpt lat="43.47002" lon="6.61806">
        <ele>50.036</ele>
        <time>2016-12-31T14:42:38Z</time>
      </trkpt>
      <trkpt lat="43.46892" lon="6.61933">
        <ele>50.018</ele>
        <time>2016-12-31T14:42:18Z</time>
      </trkpt>
      <trkpt lat="43.46831" lon="6.62077">
        <ele>49.927</ele>
        <time>2016-12-31T14:41:58Z</time>
      </trkpt>
      <trkpt lat="43.46747" lon="6.62105">
        <ele>45.987</ele>
        <time>2016-12-31T14:41:38Z</time>
      </trkpt>
      <trkpt lat="43.46667" lon="6.62187">
        <ele>45.021</ele>
        <time>2016-12-31T14:41:18Z</time>
      </trkpt>
      <trkpt lat="43.46484" lon="6.62269">
        <ele>42.508</ele>
        <time>2016-12-31T14:40:58Z</time>
      </trkpt>
      <trkpt lat="43.46485" lon="6.62286">
        <ele>43.213</ele>
        <time>2016-12-31T14:40:38Z</time>
      </trkpt>
      <trkpt lat="43.46456" lon="6.6231">
        <ele>41.521</ele>
        <time>2016-12-31T14:40:18Z</time>
      </trkpt>
      <trkpt lat="43.46449" lon="6.62367">
        <ele>42.161</ele>
        <time>2016-12-31T14:39:58Z</time>
      </trkpt>
      <trkpt lat="43.46489" lon="6.62541">
        <ele>42.495</ele>
        <time>2016-12-31T14:39:38Z</time>
      </trkpt>
      <trkpt lat="43.46511" lon="6.62554">
        <ele>42.111</ele>
        <time>2016-12-31T14:39:18Z</time>
      </trkpt>
      <trkpt lat="43.4654" lon="6.62644">
        <ele>36.28</ele>
        <time>2016-12-31T14:38:58Z</time>
      </trkpt>
      <trkpt lat="43.46539" lon="6.62717">
        <ele>28.633</ele>
        <time>2016-12-31T14:37:18Z</time>
      </trkpt>
      <trkpt lat="43.46515" lon="6.62739">
        <ele>27.985</ele>
        <time>2016-12-31T14:36:58Z</time>
      </trkpt>
      <trkpt lat="43.46477" lon="6.62821">
        <ele>23.874</ele>
        <time>2016-12-31T14:36:38Z</time>
      </trkpt>
      <trkpt lat="43.46519" lon="6.63014">
        <ele>15.584</ele>
        <time>2016-12-31T14:35:58Z</time>
      </trkpt>
      <trkpt lat="43.46526" lon="6.63078">
        <ele>15.048</ele>
        <time>2016-12-31T14:35:38Z</time>
      </trkpt>
      <trkpt lat="43.46512" lon="6.63136">
        <ele>15.008</ele>
        <time>2016-12-31T14:35:18Z</time>
      </trkpt>
      <trkpt lat="43.46464" lon="6.63122">
        <ele>14.017</ele>
        <time>2016-12-31T14:34:58Z</time>
      </trkpt>
      <trkpt lat="43.46458" lon="6.63527">
        <ele>11.57</ele>
        <time>2016-12-31T14:34:38Z</time>
      </trkpt>
      <trkpt lat="43.46466" lon="6.63637">
        <ele>12.838</ele>
        <time>2016-12-31T14:34:18Z</time>
      </trkpt>
      <trkpt lat="43.46456" lon="6.63644">
        <ele>12.473</ele>
        <time>2016-12-31T14:33:58Z</time>
      </trkpt>
      <trkpt lat="43.46462" lon="6.63674">
        <ele>12.989</ele>
        <time>2016-12-31T14:33:38Z</time>
      </trkpt>
      <trkpt lat="43.46459" lon="6.63722">
        <ele>13.558</ele>
        <time>2016-12-31T14:33:18Z</time>
      </trkpt>
      <trkpt lat="43.4647" lon="6.63994">
        <ele>12.961</ele>
        <time>2016-12-31T14:32:58Z</time>
      </trkpt>
      <trkpt lat="43.46491" lon="6.64082">
        <ele>14.753</ele>
        <time>2016-12-31T14:32:38Z</time>
      </trkpt>
      <trkpt lat="43.46487" lon="6.64143">
        <ele>14.582</ele>
        <time>2016-12-31T14:32:18Z</time>
      </trkpt>
      <trkpt lat="43.46507" lon="6.64208">
        <ele>15.052</ele>
        <time>2016-12-31T14:31:58Z</time>
      </trkpt>
      <trkpt lat="43.46613" lon="6.64225">
        <ele>15.036</ele>
        <time>2016-12-31T14:31:38Z</time>
      </trkpt>
      <trkpt lat="43.46642" lon="6.64249">
        <ele>15.008</ele>
        <time>2016-12-31T14:31:18Z</time>
      </trkpt>
      <trkpt lat="43.46661" lon="6.64321">
        <ele>14.417</ele>
        <time>2016-12-31T14:30:58Z</time>
      </trkpt>
      <trkpt lat="43.46748" lon="6.6444">
        <ele>10.598</ele>
        <time>2016-12-31T14:30:38Z</time>
      </trkpt>
      <trkpt lat="43.46794" lon="6.64436">
        <ele>10.418</ele>
        <time>2016-12-31T14:30:18Z</time>
      </trkpt>
      <trkpt lat="43.46829" lon="6.64467">
        <ele>10.051</ele>
        <time>2016-12-31T14:29:58Z</time>
      </trkpt>
      <trkpt lat="43.46868" lon="6.64478">
        <ele>10.097</ele>
        <time>2016-12-31T14:29:38Z</time>
      </trkpt>
      <trkpt lat="43.4693" lon="6.64536">
        <ele>10.336</ele>
        <time>2016-12-31T14:29:18Z</time>
      </trkpt>
      <trkpt lat="43.4706" lon="6.64672">
        <ele>12.399</ele>
        <time>2016-12-31T14:28:58Z</time>
      </trkpt>
      <trkpt lat="43.47108" lon="6.64705">
        <ele>13.061</ele>
        <time>2016-12-31T14:28:38Z</time>
      </trkpt>
      <trkpt lat="43.47237" lon="6.64803">
        <ele>14.57</ele>
        <time>2016-12-31T14:28:18Z</time>
      </trkpt>
      <trkpt lat="43.47321" lon="6.64839">
        <ele>15.05</ele>
        <time>2016-12-31T14:27:58Z</time>
      </trkpt>
      <trkpt lat="43.47346" lon="6.64862">
        <ele>15.034</ele>
        <time>2016-12-31T14:27:38Z</time>
      </trkpt>
      <trkpt lat="43.47332" lon="6.64908">
        <ele>15.008</ele>
        <time>2016-12-31T14:27:18Z</time>
      </trkpt>
      <trkpt lat="43.47325" lon="6.64954">
        <ele>15.023</ele>
        <time>2016-12-31T14:26:58Z</time>
      </trkpt>
      <trkpt lat="43.47354" lon="6.65027">
        <ele>15.049</ele>
        <time>2016-12-31T14:26:38Z</time>
      </trkpt>
      <trkpt lat="43.47386" lon="6.65073">
        <ele>15.095</ele>
        <time>2016-12-31T14:26:18Z</time>
      </trkpt>
      <trkpt lat="43.47423" lon="6.6509">
        <ele>15.073</ele>
        <time>2016-12-31T14:25:58Z</time>
      </trkpt>
      <trkpt lat="43.47506" lon="6.65145">
        <ele>15.099</ele>
        <time>2016-12-31T14:25:38Z</time>
      </trkpt>
      <trkpt lat="43.47548" lon="6.65188">
        <ele>15.088</ele>
        <time>2016-12-31T14:25:18Z</time>
      </trkpt>
      <trkpt lat="43.47606" lon="6.65223">
        <ele>16.891</ele>
        <time>2016-12-31T14:24:58Z</time>
      </trkpt>
      <trkpt lat="43.4758" lon="6.65326">
        <ele>15.923</ele>
        <time>2016-12-31T14:24:38Z</time>
      </trkpt>
      <trkpt lat="43.47586" lon="6.65376">
        <ele>17.552</ele>
        <time>2016-12-31T14:24:18Z</time>
      </trkpt>
      <trkpt lat="43.47584" lon="6.65428">
        <ele>18.452</ele>
        <time>2016-12-31T14:23:58Z</time>
      </trkpt>
      <trkpt lat="43.47606" lon="6.65526">
        <ele>22.326</ele>
        <time>2016-12-31T14:23:38Z</time>
      </trkpt>
      <trkpt lat="43.47601" lon="6.6557">
        <ele>24.108</ele>
        <time>2016-12-31T14:23:18Z</time>
      </trkpt>
      <trkpt lat="43.47565" lon="6.65629">
        <ele>24.613</ele>
        <time>2016-12-31T14:22:58Z</time>
      </trkpt>
      <trkpt lat="43.47527" lon="6.65698">
        <ele>20.076</ele>
        <time>2016-12-31T14:22:38Z</time>
      </trkpt>
      <trkpt lat="43.47498" lon="6.65718">
        <ele>19.016</ele>
        <time>2016-12-31T14:22:18Z</time>
      </trkpt>
      <trkpt lat="43.47439" lon="6.6572">
        <ele>19.093</ele>
        <time>2016-12-31T14:21:58Z</time>
      </trkpt>
      <trkpt lat="43.4741" lon="6.65735">
        <ele>19.619</ele>
        <time>2016-12-31T14:21:38Z</time>
      </trkpt>
      <trkpt lat="43.47374" lon="6.65736">
        <ele>20.868</ele>
        <time>2016-12-31T14:21:18Z</time>
      </trkpt>
      <trkpt lat="43.47348" lon="6.65754">
        <ele>21.961</ele>
        <time>2016-12-31T14:20:58Z</time>
      </trkpt>
      <trkpt lat="43.47324" lon="6.65752">
        <ele>23.333</ele>
        <time>2016-12-31T14:20:38Z</time>
      </trkpt>
      <trkpt lat="43.47247" lon="6.65833">
        <ele>26.022</ele>
        <time>2016-12-31T14:20:18Z</time>
      </trkpt>
      <trkpt lat="43.46978" lon="6.66057">
        <ele>29.092</ele>
        <time>2016-12-31T14:19:58Z</time>
      </trkpt>
      <trkpt lat="43.46885" lon="6.65984">
        <ele>26.366</ele>
        <time>2016-12-31T14:19:38Z</time>
      </trkpt>
      <trkpt lat="43.46847" lon="6.6614">
        <ele>25.008</ele>
        <time>2016-12-31T14:19:18Z</time>
      </trkpt>
      <trkpt lat="43.46757" lon="6.66214">
        <ele>19.811</ele>
        <time>2016-12-31T14:18:58Z</time>
      </trkpt>
      <trkpt lat="43.4675" lon="6.66516">
        <ele>17.065</ele>
        <time>2016-12-31T14:18:38Z</time>
      </trkpt>
      <trkpt lat="43.46731" lon="6.66681">
        <ele>19.915</ele>
        <time>2016-12-31T14:18:18Z</time>
      </trkpt>
      <trkpt lat="43.46676" lon="6.66684">
        <ele>20.066</ele>
        <time>2016-12-31T14:17:58Z</time>
      </trkpt>
      <trkpt lat="43.46654" lon="6.66705">
        <ele>19.592</ele>
        <time>2016-12-31T14:17:38Z</time>
      </trkpt>
      <trkpt lat="43.46614" lon="6.66812">
        <ele>19.261</ele>
        <time>2016-12-31T14:17:18Z</time>
      </trkpt>
      <trkpt lat="43.46538" lon="6.66923">
        <ele>19.284</ele>
        <time>2016-12-31T14:16:58Z</time>
      </trkpt>
      <trkpt lat="43.46458" lon="6.66993">
        <ele>23.986</ele>
        <time>2016-12-31T14:16:38Z</time>
      </trkpt>
      <trkpt lat="43.46426" lon="6.67066">
        <ele>26.315</ele>
        <time>2016-12-31T14:16:18Z</time>
      </trkpt>
      <trkpt lat="43.4638" lon="6.67105">
        <ele>28.595</ele>
        <time>2016-12-31T14:15:58Z</time>
      </trkpt>
      <trkpt lat="43.46305" lon="6.6713">
        <ele>25.039</ele>
        <time>2016-12-31T14:15:38Z</time>
      </trkpt>
      <trkpt lat="43.46265" lon="6.6715">
        <ele>24.508</ele>
        <time>2016-12-31T14:15:18Z</time>
      </trkpt>
      <trkpt lat="43.46219" lon="6.67217">
        <ele>22.922</ele>
        <time>2016-12-31T14:14:58Z</time>
      </trkpt>
      <trkpt lat="43.46256" lon="6.67263">
        <ele>24.202</ele>
        <time>2016-12-31T14:14:38Z</time>
      </trkpt>
      <trkpt lat="43.46319" lon="6.67305">
        <ele>25.549</ele>
        <time>2016-12-31T14:14:18Z</time>
      </trkpt>
      <trkpt lat="43.46371" lon="6.6741">
        <ele>30.199</ele>
        <time>2016-12-31T14:13:58Z</time>
      </trkpt>
      <trkpt lat="43.46405" lon="6.67454">
        <ele>30.465</ele>
        <time>2016-12-31T14:13:38Z</time>
      </trkpt>
      <trkpt lat="43.46449" lon="6.67461">
        <ele>28.294</ele>
        <time>2016-12-31T14:13:18Z</time>
      </trkpt>
      <trkpt lat="43.46515" lon="6.67429">
        <ele>25.587</ele>
        <time>2016-12-31T14:12:58Z</time>
      </trkpt>
      <trkpt lat="43.46624" lon="6.67468">
        <ele>26.449</ele>
        <time>2016-12-31T14:12:38Z</time>
      </trkpt>
      <trkpt lat="43.46685" lon="6.67483">
        <ele>28.948</ele>
        <time>2016-12-31T14:12:18Z</time>
      </trkpt>
      <trkpt lat="43.46698" lon="6.6753">
        <ele>29.138</ele>
        <time>2016-12-31T14:11:58Z</time>
      </trkpt>
      <trkpt lat="43.46735" lon="6.67567">
        <ele>29.872</ele>
        <time>2016-12-31T14:11:38Z</time>
      </trkpt>
      <trkpt lat="43.46774" lon="6.67622">
        <ele>30.008</ele>
        <time>2016-12-31T14:11:18Z</time>
      </trkpt>
      <trkpt lat="43.46806" lon="6.67638">
        <ele>31.026</ele>
        <time>2016-12-31T14:10:58Z</time>
      </trkpt>
      <trkpt lat="43.46829" lon="6.67682">
        <ele>31.433</ele>
        <time>2016-12-31T14:10:38Z</time>
      </trkpt>
      <trkpt lat="43.46763" lon="6.67756">
        <ele>30.078</ele>
        <time>2016-12-31T14:10:18Z</time>
      </trkpt>
      <trkpt lat="43.46646" lon="6.67961">
        <ele>24.071</ele>
        <time>2016-12-31T14:09:58Z</time>
      </trkpt>
      <trkpt lat="43.46616" lon="6.67991">
        <ele>22.447</ele>
        <time>2016-12-31T14:09:38Z</time>
      </trkpt>
      <trkpt lat="43.46545" lon="6.67982">
        <ele>18.616</ele>
        <time>2016-12-31T14:09:18Z</time>
      </trkpt>
      <trkpt lat="43.46458" lon="6.68024">
        <ele>15.059</ele>
        <time>2016-12-31T14:08:58Z</time>
      </trkpt>
      <trkpt lat="43.46372" lon="6.68111">
        <ele>15.061</ele>
        <time>2016-12-31T14:08:38Z</time>
      </trkpt>
      <trkpt lat="43.46344" lon="6.68118">
        <ele>15.05</ele>
        <time>2016-12-31T14:08:18Z</time>
      </trkpt>
      <trkpt lat="43.46317" lon="6.68139">
        <ele>15.07</ele>
        <time>2016-12-31T14:07:58Z</time>
      </trkpt>
      <trkpt lat="43.46261" lon="6.68338">
        <ele>15.034</ele>
        <time>2016-12-31T14:07:38Z</time>
      </trkpt>
      <trkpt lat="43.46227" lon="6.6844">
        <ele>16.808</ele>
        <time>2016-12-31T14:07:18Z</time>
      </trkpt>
      <trkpt lat="43.46184" lon="6.68491">
        <ele>18.425</ele>
        <time>2016-12-31T14:06:58Z</time>
      </trkpt>
      <trkpt lat="43.46141" lon="6.68502">
        <ele>20.823</ele>
        <time>2016-12-31T14:06:38Z</time>
      </trkpt>
      <trkpt lat="43.46098" lon="6.68469">
        <ele>24.397</ele>
        <time>2016-12-31T14:06:18Z</time>
      </trkpt>
      <trkpt lat="43.46043" lon="6.68417">
        <ele>29.96</ele>
        <time>2016-12-31T14:05:58Z</time>
      </trkpt>
      <trkpt lat="43.45997" lon="6.68422">
        <ele>31.826</ele>
        <time>2016-12-31T14:05:38Z</time>
      </trkpt>
      <trkpt lat="43.45965" lon="6.68463">
        <ele>30.565</ele>
        <time>2016-12-31T14:05:18Z</time>
      </trkpt>
      <trkpt lat="43.4592" lon="6.68423">
        <ele>30.068</ele>
        <time>2016-12-31T14:04:58Z</time>
      </trkpt>
      <trkpt lat="43.45769" lon="6.68403">
        <ele>25.85</ele>
        <time>2016-12-31T14:04:38Z</time>
      </trkpt>
      <trkpt lat="43.45673" lon="6.68377">
        <ele>29.149</ele>
        <time>2016-12-31T14:04:18Z</time>
      </trkpt>
      <trkpt lat="43.45595" lon="6.6831">
        <ele>28.379</ele>
        <time>2016-12-31T14:03:58Z</time>
      </trkpt>
      <trkpt lat="43.45546" lon="6.68286">
        <ele>24.333</ele>
        <time>2016-12-31T14:03:38Z</time>
      </trkpt>
      <trkpt lat="43.45521" lon="6.68382">
        <ele>26.508</ele>
        <time>2016-12-31T14:03:18Z</time>
      </trkpt>
      <trkpt lat="43.45514" lon="6.68455">
        <ele>26.726</ele>
        <time>2016-12-31T14:02:58Z</time>
      </trkpt>
      <trkpt lat="43.45494" lon="6.68501">
        <ele>24.46</ele>
        <time>2016-12-31T14:02:38Z</time>
      </trkpt>
      <trkpt lat="43.45464" lon="6.68716">
        <ele>18.786</ele>
        <time>2016-12-31T14:02:18Z</time>
      </trkpt>
      <trkpt lat="43.45423" lon="6.68863">
        <ele>20.067</ele>
        <time>2016-12-31T14:01:58Z</time>
      </trkpt>
      <trkpt lat="43.45394" lon="6.6891">
        <ele>20.063</ele>
        <time>2016-12-31T14:01:38Z</time>
      </trkpt>
      <trkpt lat="43.45473" lon="6.69032">
        <ele>21.272</ele>
        <time>2016-12-31T14:01:18Z</time>
      </trkpt>
      <trkpt lat="43.45485" lon="6.69114">
        <ele>23.555</ele>
        <time>2016-12-31T14:00:58Z</time>
      </trkpt>
      <trkpt lat="43.45545" lon="6.6919">
        <ele>26.637</ele>
        <time>2016-12-31T14:00:38Z</time>
      </trkpt>
      <trkpt lat="43.45559" lon="6.69225">
        <ele>27.286</ele>
        <time>2016-12-31T14:00:18Z</time>
      </trkpt>
      <trkpt lat="43.45566" lon="6.69637">
        <ele>28.476</ele>
        <time>2016-12-31T13:59:58Z</time>
      </trkpt>
      <trkpt lat="43.45554" lon="6.69657">
        <ele>28.01</ele>
        <time>2016-12-31T13:59:38Z</time>
      </trkpt>
      <trkpt lat="43.45495" lon="6.69857">
        <ele>25.108</ele>
        <time>2016-12-31T13:59:18Z</time>
      </trkpt>
      <trkpt lat="43.45427" lon="6.69957">
        <ele>25.017</ele>
        <time>2016-12-31T13:58:58Z</time>
      </trkpt>
      <trkpt lat="43.45393" lon="6.70025">
        <ele>25.052</ele>
        <time>2016-12-31T13:58:38Z</time>
      </trkpt>
      <trkpt lat="43.45352" lon="6.70152">
        <ele>23.758</ele>
        <time>2016-12-31T13:58:18Z</time>
      </trkpt>
      <trkpt lat="43.45335" lon="6.70305">
        <ele>21.046</ele>
        <time>2016-12-31T13:57:58Z</time>
      </trkpt>
      <trkpt lat="43.45299" lon="6.70402">
        <ele>21.092</ele>
        <time>2016-12-31T13:57:38Z</time>
      </trkpt>
      <trkpt lat="43.45289" lon="6.7052">
        <ele>20.041</ele>
        <time>2016-12-31T13:57:18Z</time>
      </trkpt>
      <trkpt lat="43.45254" lon="6.70599">
        <ele>19.954</ele>
        <time>2016-12-31T13:56:58Z</time>
      </trkpt>
      <trkpt lat="43.45221" lon="6.70639">
        <ele>19.966</ele>
        <time>2016-12-31T13:56:38Z</time>
      </trkpt>
      <trkpt lat="43.4519" lon="6.70688">
        <ele>16.185</ele>
        <time>2016-12-31T13:56:18Z</time>
      </trkpt>
      <trkpt lat="43.45179" lon="6.70766">
        <ele>13.045</ele>
        <time>2016-12-31T13:55:58Z</time>
      </trkpt>
      <trkpt lat="43.45162" lon="6.70846">
        <ele>10.119</ele>
        <time>2016-12-31T13:55:38Z</time>
      </trkpt>
      <trkpt lat="43.4512" lon="6.70934">
        <ele>10.008</ele>
        <time>2016-12-31T13:55:18Z</time>
      </trkpt>
      <trkpt lat="43.45084" lon="6.70965">
        <ele>10.016</ele>
        <time>2016-12-31T13:54:58Z</time>
      </trkpt>
      <trkpt lat="43.45089" lon="6.71007">
        <ele>10.088</ele>
        <time>2016-12-31T13:54:38Z</time>
      </trkpt>
      <trkpt lat="43.44879" lon="6.71207">
        <ele>7.846</ele>
        <time>2016-12-31T13:54:18Z</time>
      </trkpt>
      <trkpt lat="43.44663" lon="6.71253">
        <ele>6.053</ele>
        <time>2016-12-31T13:53:58Z</time>
      </trkpt>
      <trkpt lat="43.44663" lon="6.72073">
        <ele>5.019</ele>
        <time>2016-12-31T13:53:38Z</time>
      </trkpt>
      <trkpt lat="43.44656" lon="6.72131">
        <ele>5.348</ele>
        <time>2016-12-31T13:53:18Z</time>
      </trkpt>
      <trkpt lat="43.44392" lon="6.72236">
        <ele>8.831</ele>
        <time>2016-12-31T13:52:58Z</time>
      </trkpt>
      <trkpt lat="43.44334" lon="6.72287">
        <ele>9.023</ele>
        <time>2016-12-31T13:52:38Z</time>
      </trkpt>
      <trkpt lat="43.44275" lon="6.72373">
        <ele>8.092</ele>
        <time>2016-12-31T13:52:18Z</time>
      </trkpt>
      <trkpt lat="43.44122" lon="6.72447">
        <ele>10.062</ele>
        <time>2016-12-31T13:51:58Z</time>
      </trkpt>
      <trkpt lat="43.44024" lon="6.72552">
        <ele>10.096</ele>
        <time>2016-12-31T13:51:38Z</time>
      </trkpt>
      <trkpt lat="43.4394" lon="6.72653">
        <ele>9.008</ele>
        <time>2016-12-31T13:51:18Z</time>
      </trkpt>
      <trkpt lat="43.43723" lon="6.72776">
        <ele>7.019</ele>
        <time>2016-12-31T13:50:58Z</time>
      </trkpt>
      <trkpt lat="43.43668" lon="6.72682">
        <ele>5.009</ele>
        <time>2016-12-31T13:50:38Z</time>
      </trkpt>
      <trkpt lat="43.43509" lon="6.72507">
        <ele>5.019</ele>
        <time>2016-12-31T13:50:18Z</time>
      </trkpt>
      <trkpt lat="43.43443" lon="6.72623">
        <ele>10.066</ele>
        <time>2016-12-31T13:49:58Z</time>
      </trkpt>
      <trkpt lat="43.43358" lon="6.72803">
        <ele>10.922</ele>
        <time>2016-12-31T13:49:38Z</time>
      </trkpt>
      <trkpt lat="43.43393" lon="6.72858">
        <ele>12.191</ele>
        <time>2016-12-31T13:49:18Z</time>
      </trkpt>
      <trkpt lat="43.43393" lon="6.72858">
        <ele>12.184</ele>
        <time>2016-12-31T13:48:58Z</time>
      </trkpt>
      <trkpt lat="43.43402" lon="6.72927">
        <ele>13.996</ele>
        <time>2016-12-31T13:48:38Z</time>
      </trkpt>
      <trkpt lat="43.43329" lon="6.73146">
        <ele>12.755</ele>
        <time>2016-12-31T13:48:18Z</time>
      </trkpt>
      <trkpt lat="43.43281" lon="6.73199">
        <ele>10.035</ele>
        <time>2016-12-31T13:47:58Z</time>
      </trkpt>
      <trkpt lat="43.43251" lon="6.73249">
        <ele>9.019</ele>
        <time>2016-12-31T13:47:38Z</time>
      </trkpt>
      <trkpt lat="43.4324" lon="6.73461">
        <ele>14.908</ele>
        <time>2016-12-31T13:47:18Z</time>
      </trkpt>
      <trkpt lat="43.43253" lon="6.73521">
        <ele>18.01</ele>
        <time>2016-12-31T13:46:58Z</time>
      </trkpt>
      <trkpt lat="43.43076" lon="6.73555">
        <ele>6.464</ele>
        <time>2016-12-31T13:46:38Z</time>
      </trkpt>
      <trkpt lat="43.43076" lon="6.73555">
        <ele>6.443</ele>
        <time>2016-12-31T13:46:18Z</time>
      </trkpt>
      <trkpt lat="43.43076" lon="6.73557">
        <ele>6.493</ele>
        <time>2016-12-31T13:45:58Z</time>
      </trkpt>
      <trkpt lat="43.42877" lon="6.7363">
        <ele>4.489</ele>
        <time>2016-12-31T13:45:38Z</time>
      </trkpt>
      <trkpt lat="43.4287" lon="6.73711">
        <ele>5.798</ele>
        <time>2016-12-31T13:45:18Z</time>
      </trkpt>
      <trkpt lat="43.42891" lon="6.73762">
        <ele>5.111</ele>
        <time>2016-12-31T13:44:58Z</time>
      </trkpt>
      <trkpt lat="43.42937" lon="6.73774">
        <ele>5.223</ele>
        <time>2016-12-31T13:44:38Z</time>
      </trkpt>
      <trkpt lat="43.42917" lon="6.74266">
        <ele>4.082</ele>
        <time>2016-12-31T13:44:18Z</time>
      </trkpt>
      <trkpt lat="43.42932" lon="6.74336">
        <ele>4.092</ele>
        <time>2016-12-31T13:43:58Z</time>
      </trkpt>
      <trkpt lat="43.42958" lon="6.74398">
        <ele>4.086</ele>
        <time>2016-12-31T13:43:38Z</time>
      </trkpt>
      <trkpt lat="43.42936" lon="6.74513">
        <ele>4.008</ele>
        <time>2016-12-31T13:43:18Z</time>
      </trkpt>
      <trkpt lat="43.42898" lon="6.7459">
        <ele>3.007</ele>
        <time>2016-12-31T13:42:58Z</time>
      </trkpt>
      <trkpt lat="43.42875" lon="6.74609">
        <ele>3.043</ele>
        <time>2016-12-31T13:42:38Z</time>
      </trkpt>
      <trkpt lat="43.4285" lon="6.74562">
        <ele>3.013</ele>
        <time>2016-12-31T13:42:18Z</time>
      </trkpt>
      <trkpt lat="43.42821" lon="6.74554">
        <ele>3.063</ele>
        <time>2016-12-31T13:41:58Z</time>
      </trkpt>
      <trkpt lat="43.42757" lon="6.74582">
        <ele>3.059</ele>
        <time>2016-12-31T13:41:38Z</time>
      </trkpt>
      <trkpt lat="43.42685" lon="6.7467">
        <ele>2.038</ele>
        <time>2016-12-31T13:41:18Z</time>
      </trkpt>
      <trkpt lat="43.42599" lon="6.74842">
        <ele>2.081</ele>
        <time>2016-12-31T13:40:58Z</time>
      </trkpt>
      <trkpt lat="43.42537" lon="6.75029">
        <ele>1.043</ele>
        <time>2016-12-31T13:40:38Z</time>
      </trkpt>
      <trkpt lat="43.42437" lon="6.75214">
        <ele>1.022</ele>
        <time>2016-12-31T13:40:18Z</time>
      </trkpt>
      <trkpt lat="43.42437" lon="6.75214">
        <ele>1.032</ele>
        <time>2016-12-31T13:39:58Z</time>
      </trkpt>
      <trkpt lat="43.42438" lon="6.75214">
        <ele>1.046</ele>
        <time>2016-12-31T13:39:38Z</time>
      </trkpt>
      <trkpt lat="43.42263" lon="6.7536">
        <ele>1.008</ele>
        <time>2016-12-31T13:39:18Z</time>
      </trkpt>
      <trkpt lat="43.42365" lon="6.75605">
        <ele>1.019</ele>
        <time>2016-12-31T13:38:58Z</time>
      </trkpt>
      <trkpt lat="43.42441" lon="6.75945">
        <ele>1.009</ele>
        <time>2016-12-31T13:38:38Z</time>
      </trkpt>
      <trkpt lat="43.42478" lon="6.76138">
        <ele>1.019</ele>
        <time>2016-12-31T13:38:18Z</time>
      </trkpt>
      <trkpt lat="43.42414" lon="6.76573">
        <ele>0.699</ele>
        <time>2016-12-31T13:37:58Z</time>
      </trkpt>
      <trkpt lat="43.42375" lon="6.76616">
        <ele>0.185</ele>
        <time>2016-12-31T13:37:38Z</time>
      </trkpt>
      <trkpt lat="43.4233" lon="6.76613">
        <ele>0.134</ele>
        <time>2016-12-31T13:37:18Z</time>
      </trkpt>
      <trkpt lat="43.42319" lon="6.76746">
        <ele>3.957</ele>
        <time>2016-12-31T13:36:58Z</time>
      </trkpt>
    </trkseg>
  </trk>
</gpx>